地図

経路データ

SID SEASON NUMBER BASIN SUBBASIN NAME ISO_TIME NATURE LAT LON WMO_WIND WMO_PRES WMO_AGENCY TRACK_TYPE DIST2LAND LANDFALL IFLAG USA_AGENCY USA_ATCF_ID USA_LAT USA_LON USA_RECORD USA_STATUS USA_WIND USA_PRES USA_SSHS USA_R34_NE USA_R34_SE USA_R34_SW USA_R34_NW USA_R50_NE USA_R50_SE USA_R50_SW USA_R50_NW USA_R64_NE USA_R64_SE USA_R64_SW USA_R64_NW USA_POCI USA_ROCI USA_RMW USA_EYE TOKYO_LAT TOKYO_LON TOKYO_GRADE TOKYO_WIND TOKYO_PRES TOKYO_R50_DIR TOKYO_R50_LONG TOKYO_R50_SHORT TOKYO_R30_DIR TOKYO_R30_LONG TOKYO_R30_SHORT TOKYO_LAND CMA_LAT CMA_LON CMA_CAT CMA_WIND CMA_PRES HKO_LAT HKO_LON HKO_CAT HKO_WIND HKO_PRES NEWDELHI_LAT NEWDELHI_LON NEWDELHI_GRADE NEWDELHI_WIND NEWDELHI_PRES NEWDELHI_CI NEWDELHI_DP NEWDELHI_POCI REUNION_LAT REUNION_LON REUNION_TYPE REUNION_WIND REUNION_PRES REUNION_TNUM REUNION_CI REUNION_RMW REUNION_R34_NE REUNION_R34_SE REUNION_R34_SW REUNION_R34_NW REUNION_R50_NE REUNION_R50_SE REUNION_R50_SW REUNION_R50_NW REUNION_R64_NE REUNION_R64_SE REUNION_R64_SW REUNION_R64_NW BOM_LAT BOM_LON BOM_TYPE BOM_WIND BOM_PRES BOM_TNUM BOM_CI BOM_RMW BOM_R34_NE BOM_R34_SE BOM_R34_SW BOM_R34_NW BOM_R50_NE BOM_R50_SE BOM_R50_SW BOM_R50_NW BOM_R64_NE BOM_R64_SE BOM_R64_SW BOM_R64_NW BOM_ROCI BOM_POCI BOM_EYE BOM_POS_METHOD BOM_PRES_METHOD NADI_LAT NADI_LON NADI_CAT NADI_WIND NADI_PRES WELLINGTON_LAT WELLINGTON_LON WELLINGTON_WIND WELLINGTON_PRES DS824_LAT DS824_LON DS824_STAGE DS824_WIND DS824_PRES TD9636_LAT TD9636_LON TD9636_STAGE TD9636_WIND TD9636_PRES TD9635_LAT TD9635_LON TD9635_WIND TD9635_PRES TD9635_ROCI NEUMANN_LAT NEUMANN_LON NEUMANN_CLASS NEUMANN_WIND NEUMANN_PRES MLC_LAT MLC_LON MLC_CLASS MLC_WIND MLC_PRES USA_GUST BOM_GUST BOM_GUST_PER REUNION_GUST REUNION_GUST_PER USA_SEAHGT USA_SEARAD_NE USA_SEARAD_SE USA_SEARAD_SW USA_SEARAD_NW STORM_SPEED STORM_DIR
1899252N18092 1899 32 NI BB NOT_NAMED 1899-09-09 00:00:00 TS 18.2000 92.0000 main 200 200 _________O____ -1 18.2000 92.0000 TC 30 4 260
1899252N18092 1899 32 NI BB NOT_NAMED 1899-09-09 03:00:00 TS 18.1667 91.7983 main 219 219 _________PO___ -1 18.1501 91.6975 TC 30 18.2000 92.0000 1 5 260
1899252N18092 1899 32 NI BB NOT_NAMED 1899-09-09 06:00:00 TS 18.1178 91.5168 main 252 252 _________OP___ -1 18.1000 91.4000 TC 30 18.1446 91.6921 1 6 260
1899252N18092 1899 32 NI BB NOT_NAMED 1899-09-09 09:00:00 TS 18.0676 91.2275 main 282 282 _________PP___ -1 18.0499 91.1075 TC 30 18.0911 91.3874 1 6 260
1899252N18092 1899 32 NI BB NOT_NAMED 1899-09-09 12:00:00 TS 18.0211 90.9445 main 315 315 _________OP___ -1 18.0000 90.8000 TC 30 18.0421 91.0890 1 6 260
1899252N18092 1899 32 NI BB NOT_NAMED 1899-09-09 15:00:00 TS 17.9712 90.6325 main 337 337 _________PO___ -1 17.9424 90.4650 TC 30 18.0000 90.8000 1 6 262
1899252N18092 1899 32 NI BB NOT_NAMED 1899-09-09 18:00:00 TS 17.9333 90.3078 main 367 367 _________OP___ -1 17.9000 90.1000 TC 30 17.9665 90.5156 1 6 265
1899252N18092 1899 32 NI BB NOT_NAMED 1899-09-09 21:00:00 TS 17.9199 89.9838 main 390 390 _________PP___ -1 17.8995 89.7676 TC 30 17.9404 90.2000 1 7 268
1899252N18092 1899 32 NI BB NOT_NAMED 1899-09-10 00:00:00 TS 17.9096 89.5547 main 406 360 _________OP___ -1 17.9000 89.3000 TC 30 17.9191 89.8094 1 10 267
1899252N18092 1899 32 NI BB NOT_NAMED 1899-09-10 03:00:00 TS 17.8751 88.9299 main 352 310 _________PO___ -1 17.8503 88.5598 TC 30 17.9000 89.3000 1 14 267
1899252N18092 1899 32 NI BB NOT_NAMED 1899-09-10 06:00:00 TS 17.8327 88.1264 main 304 263 _________OP___ -1 17.8000 87.7000 TC 30 17.8655 88.5529 1 16 268
1899252N18092 1899 32 NI BB NOT_NAMED 1899-09-10 09:00:00 TS 17.8120 87.2698 main 263 229 _________PP___ -1 17.7928 86.8401 TC 30 17.8313 87.6995 1 16 269
1899252N18092 1899 32 NI BB NOT_NAMED 1899-09-10 12:00:00 TS 17.8030 86.4732 main 229 177 _________OP___ -1 17.8000 86.1000 TC 30 17.8061 86.8464 1 13 269
1899252N18092 1899 32 NI BB NOT_NAMED 1899-09-10 15:00:00 TS 17.7922 85.8662 main 177 145 _________PO___ -1 17.7845 85.6324 TC 30 17.8000 86.1000 1 10 270
1899252N18092 1899 32 NI BB NOT_NAMED 1899-09-10 18:00:00 TS 17.8071 85.4535 main 145 107 _________OP___ -1 17.8000 85.3000 TC 30 17.8143 85.6070 1 7 276
1899252N18092 1899 32 NI BB NOT_NAMED 1899-09-10 21:00:00 TS 17.8687 85.0901 main 107 76 _________PP___ -1 17.8849 84.9500 TC 30 17.8526 85.2301 1 7 283
1899252N18092 1899 32 NI BB NOT_NAMED 1899-09-11 00:00:00 TS 17.9574 84.7565 main 76 46 _________OP___ -1 18.0000 84.6000 TC 30 17.9147 84.9131 1 7 285
1899252N18092 1899 32 NI BB NOT_NAMED 1899-09-11 03:00:00 TS 18.0462 84.4037 main 46 15 _________PO___ -1 18.0925 84.2074 TC 30 18.0000 84.6000 1 8 285
1899252N18092 1899 32 NI BB NOT_NAMED 1899-09-11 06:00:00 TS 18.1518 83.9935 main 10 0 _________OP___ -1 18.2000 83.8000 TC 30 18.1035 84.1871 1 8 287
1899252N18092 1899 32 NI BB NOT_NAMED 1899-09-11 09:00:00 TS 18.2888 83.5777 main 0 0 _________PP___ -1 18.3500 83.3851 TC 30 18.2277 83.7703 1 8 290
1899252N18092 1899 32 NI BB NOT_NAMED 1899-09-11 12:00:00 TS 18.4315 83.1841 main 0 0 _________OP___ -1 18.5000 83.0000 TC 30 18.3629 83.3683 1 7 290
1899252N18092 1899 32 NI BB NOT_NAMED 1899-09-11 15:00:00 TS 18.5500 82.8387 main 0 0 _________PO___ -1 18.5999 82.6774 TC 30 18.5000 83.0000 1 6 289
1899252N18092 1899 32 NI BB NOT_NAMED 1899-09-11 18:00:00 TS 18.6337 82.5581 main 0 0 _________OP___ -1 18.7000 82.4000 TC 30 18.5674 82.7162 1 5 289
1899252N18092 1899 32 NI BB NOT_NAMED 1899-09-11 21:00:00 TS 18.7206 82.3212 main 0 0 _________PP___ -1 18.7972 82.1795 TC 30 18.6439 82.4629 1 5 298
1899252N18092 1899 32 NI BB NOT_NAMED 1899-09-12 00:00:00 TS 18.8868 82.0516 main 0 0 _________OP___ -1 19.0000 81.9000 TC 30 18.7736 82.2032 1 8 307
1899252N18092 1899 32 NI BB NOT_NAMED 1899-09-12 03:00:00 TS 19.1989 81.6614 main 0 0 _________PO___ -1 19.3977 81.4228 TC 30 19.0000 81.9000 1 11 312
1899252N18092 1899 32 NI BB NOT_NAMED 1899-09-12 06:00:00 TS 19.6314 81.1865 main 0 0 _________OP___ -1 19.9000 80.9000 TC 30 19.3629 81.4731 1 13 316
1899252N18092 1899 32 NI BB NOT_NAMED 1899-09-12 09:00:00 TS 20.1079 80.7395 main 0 0 _________PP___ -1 20.3923 80.4772 TC 30 19.8235 81.0017 1 13 320
1899252N18092 1899 32 NI BB NOT_NAMED 1899-09-12 12:00:00 TS 20.6237 80.3146 main 0 0 _________OP___ -1 20.9000 80.1000 TC 30 20.3473 80.5292 1 13 323
1899252N18092 1899 32 NI BB NOT_NAMED 1899-09-12 15:00:00 TS 21.1425 79.9099 main 0 0 _________PO___ -1 21.3850 79.7198 TC 30 20.9000 80.1000 1 13 326
1899252N18092 1899 32 NI BB NOT_NAMED 1899-09-12 18:00:00 TS 21.6742 79.5611 main 0 0 _________OP___ -1 21.9000 79.4000 TC 30 21.4484 79.7223 1 13 332
1899252N18092 1899 32 NI BB NOT_NAMED 1899-09-12 21:00:00 TS 22.2610 79.2779 main 0 0 _________PP___ -1 22.5074 79.1550 TC 30 22.0147 79.4009 1 13 339
1899252N18092 1899 32 NI BB NOT_NAMED 1899-09-13 00:00:00 TS 22.8368 79.0770 main 0 0 _________OP___ -1 23.1000 79.0000 TC 30 22.5736 79.1539 1 11 344
1899252N18092 1899 32 NI BB NOT_NAMED 1899-09-13 03:00:00 TS 23.3400 78.9487 main 0 0 _________PO___ -1 23.5799 78.8975 TC 30 23.1000 79.0000 1 10 351
1899252N18092 1899 32 NI BB NOT_NAMED 1899-09-13 06:00:00 TS 23.7924 78.9075 main 0 0 _________OP___ -1 24.0000 78.9000 TC 30 23.5847 78.9150 1 9 1
1899252N18092 1899 32 NI BB NOT_NAMED 1899-09-13 09:00:00 TS 24.2271 78.9657 main 0 0 _________PP___ -1 24.4225 79.0049 TC 30 24.0317 78.9265 1 9 13
1899252N18092 1899 32 NI BB NOT_NAMED 1899-09-13 12:00:00 TS 24.6189 79.1124 main 0 0 _________OP___ -1 24.8000 79.2000 TC 30 24.4379 79.0249 1 8 23
1899252N18092 1899 32 NI BB NOT_NAMED 1899-09-13 15:00:00 TS 24.9612 79.3101 main 0 0 _________PO___ -1 25.1224 79.4201 TC 30 24.8000 79.2000 1 8 32
1899252N18092 1899 32 NI BB NOT_NAMED 1899-09-13 18:00:00 TS 25.2776 79.5717 main 0 0 _________OP___ -1 25.4000 79.7000 TC 30 25.1551 79.4433 1 8 41
1899252N18092 1899 32 NI BB NOT_NAMED 1899-09-13 21:00:00 TS 25.5754 79.9054 main 0 0 _________PP___ -1 25.6876 80.0573 TC 30 25.4632 79.7536 1 8 49
1899252N18092 1899 32 NI BB NOT_NAMED 1899-09-14 00:00:00 TS 25.8073 80.2436 main 0 0 _________OP___ -1 25.9000 80.4000 TC 30 25.7145 80.0872 1 7 56
1899252N18092 1899 32 NI BB NOT_NAMED 1899-09-14 03:00:00 TS 25.9399 80.5114 main 0 0 _________PO___ -1 25.9799 80.6228 TC 30 25.9000 80.4000 1 5 64
1899252N18092 1899 32 NI BB NOT_NAMED 1899-09-14 06:00:00 TS 26.0112 80.7148 main 0 0 _________OP___ -1 26.0000 80.8000 TC 30 26.0225 80.6295 1 4 70
1899252N18092 1899 32 NI BB NOT_NAMED 1899-09-14 09:00:00 TS 26.0698 80.9154 main 0 0 _________PP___ -1 26.0575 81.0000 TC 30 26.0821 80.8309 1 4 76
1899252N18092 1899 32 NI BB NOT_NAMED 1899-09-14 12:00:00 TS 26.1003 81.1084 main 0 0 _________OP___ -1 26.1000 81.2000 TC 30 26.1007 81.0168 1 3 84
1899252N18092 1899 32 NI BB NOT_NAMED 1899-09-14 15:00:00 TS 26.1037 81.3000 main 0 0 _________PO___ -1 26.1075 81.4000 TC 30 26.1000 81.2000 1 3 88
1899252N18092 1899 32 NI BB NOT_NAMED 1899-09-14 18:00:00 TS 26.1110 81.4858 main 0 0 _________OP___ -1 26.1000 81.6000 TC 30 26.1221 81.3715 1 3 87
1899252N18092 1899 32 NI BB NOT_NAMED 1899-09-14 21:00:00 TS 26.1183 81.6587 main 0 0 _________PP___ -1 26.1073 81.7699 TC 30 26.1293 81.5474 1 3 90
1899252N18092 1899 32 NI BB NOT_NAMED 1899-09-15 00:00:00 TS 26.1110 81.8748 main 0 0 _________OP___ -1 26.1000 82.0000 TC 30 26.1219 81.7496 1 5 95
1899252N18092 1899 32 NI BB NOT_NAMED 1899-09-15 03:00:00 TS 26.0788 82.1888 main 0 0 _________PO___ -1 26.0577 82.3776 TC 30 26.1000 82.0000 1 6 97
1899252N18092 1899 32 NI BB NOT_NAMED 1899-09-15 06:00:00 TS 26.0344 82.5665 main 0 0 _________OP___ -1 26.0000 82.8000 TC 30 26.0688 82.3329 1 7 98
1899252N18092 1899 32 NI BB NOT_NAMED 1899-09-15 09:00:00 TS 25.9864 82.9350 main 0 0 _________PP___ -1 25.9499 83.1575 TC 30 26.0230 82.7126 1 7 99
1899252N18092 1899 32 NI BB NOT_NAMED 1899-09-15 12:00:00 TS 25.9328 83.3055 main 0 0 _________OP___ -1 25.9000 83.5000 TC 30 25.9656 83.1110 1 7 99
1899252N18092 1899 32 NI BB NOT_NAMED 1899-09-15 15:00:00 TS 25.8787 83.6787 main 0 0 _________PO___ -1 25.8575 83.8574 TC 30 25.9000 83.5000 1 6 100
1899252N18092 1899 32 NI BB NOT_NAMED 1899-09-15 18:00:00 TS 25.8167 84.0045 main 0 0 _________OP___ -1 25.8000 84.2000 TC 30 25.8293 83.8579 1 6 104
1899252N18092 1899 32 NI BB NOT_NAMED 1899-09-15 21:00:00 TS 25.7370 84.3167 main 0 0 _________PP___ -1 25.7101 84.5101 TC 30 25.7550 84.1877 1 6 107
1899252N18092 1899 32 NI BB NOT_NAMED 1899-09-16 00:00:00 TS 25.6522 84.5991 main 0 0 _________OP___ -1 25.6000 84.8000 TC 30 25.6783 84.4986 1 5 107
1899252N18092 1899 32 NI BB NOT_NAMED 1899-09-16 03:00:00 NR 25.6000 84.8000 main 0 __________O___ -1 TC 25.6000 84.8000 1 4 106

IBTrACS Databaseについて

本データベースは、米国NOAAが公開する1842年以降の世界の熱帯低気圧のベストトラックデータアーカイブInternational Best Track Archive for Climate Stewardship (IBTrACS)を、ウェブで閲覧しやすい形式に変換したものです。

最終更新日:2021-10-21